sensor_id;sensor_type;location;lat;lon;timestamp;P1;durP1;ratioP1;P2;durP2;ratioP2
43449;SDS011;29041;42.266;23.110;2023-10-09T00:01:30;3.92;;;1.65;;
43449;SDS011;29041;42.266;23.110;2023-10-09T00:04:19;3.80;;;1.00;;
43449;SDS011;29041;42.266;23.110;2023-10-09T00:07:07;4.10;;;0.85;;
43449;SDS011;29041;42.266;23.110;2023-10-09T00:09:56;2.45;;;0.50;;
43449;SDS011;29041;42.266;23.110;2023-10-09T00:12:44;2.15;;;0.90;;
43449;SDS011;29041;42.266;23.110;2023-10-09T00:15:34;4.32;;;1.05;;
43449;SDS011;29041;42.266;23.110;2023-10-09T00:18:22;1.33;;;0.52;;
43449;SDS011;29041;42.266;23.110;2023-10-09T00:21:16;3.13;;;1.25;;
43449;SDS011;29041;42.266;23.110;2023-10-09T00:24:05;1.50;;;0.70;;
43449;SDS011;29041;42.266;23.110;2023-10-09T00:26:58;3.67;;;0.75;;
43449;SDS011;29041;42.266;23.110;2023-10-09T00:29:57;2.40;;;0.70;;
43449;SDS011;29041;42.266;23.110;2023-10-09T00:32:45;4.00;;;0.95;;
43449;SDS011;29041;42.266;23.110;2023-10-09T00:35:44;1.60;;;1.02;;
43449;SDS011;29041;42.266;23.110;2023-10-09T00:38:41;3.28;;;1.00;;
43449;SDS011;29041;42.266;23.110;2023-10-09T00:41:38;1.92;;;0.50;;
43449;SDS011;29041;42.266;23.110;2023-10-09T00:44:27;4.82;;;1.13;;
43449;SDS011;29041;42.266;23.110;2023-10-09T00:47:23;4.97;;;1.55;;
43449;SDS011;29041;42.266;23.110;2023-10-09T00:50:19;2.08;;;1.20;;
43449;SDS011;29041;42.266;23.110;2023-10-09T00:53:07;3.65;;;0.50;;
43449;SDS011;29041;42.266;23.110;2023-10-09T00:55:59;2.08;;;0.90;;
43449;SDS011;29041;42.266;23.110;2023-10-09T00:58:57;3.83;;;0.70;;
43449;SDS011;29041;42.266;23.110;2023-10-09T01:01:53;0.98;;;0.80;;
43449;SDS011;29041;42.266;23.110;2023-10-09T01:04:43;2.50;;;1.27;;
43449;SDS011;29041;42.266;23.110;2023-10-09T01:07:30;6.60;;;0.98;;
43449;SDS011;29041;42.266;23.110;2023-10-09T01:10:18;3.53;;;0.70;;
43449;SDS011;29041;42.266;23.110;2023-10-09T01:13:06;2.63;;;0.77;;
43449;SDS011;29041;42.266;23.110;2023-10-09T01:15:55;3.70;;;1.35;;
43449;SDS011;29041;42.266;23.110;2023-10-09T01:18:46;2.08;;;0.60;;
43449;SDS011;29041;42.266;23.110;2023-10-09T01:21:35;1.60;;;0.60;;
43449;SDS011;29041;42.266;23.110;2023-10-09T01:24:23;1.45;;;0.60;;
43449;SDS011;29041;42.266;23.110;2023-10-09T01:27:12;3.13;;;0.77;;
43449;SDS011;29041;42.266;23.110;2023-10-09T01:30:00;1.17;;;0.85;;
43449;SDS011;29041;42.266;23.110;2023-10-09T01:32:47;1.75;;;0.40;;
43449;SDS011;29041;42.266;23.110;2023-10-09T01:35:36;2.33;;;0.80;;
43449;SDS011;29041;42.266;23.110;2023-10-09T01:38:32;1.30;;;0.60;;
43449;SDS011;29041;42.266;23.110;2023-10-09T01:41:27;2.05;;;0.77;;
43449;SDS011;29041;42.266;23.110;2023-10-09T01:44:19;2.85;;;0.65;;
43449;SDS011;29041;42.266;23.110;2023-10-09T01:47:08;1.88;;;0.50;;
43449;SDS011;29041;42.266;23.110;2023-10-09T01:49:59;0.95;;;0.68;;
43449;SDS011;29041;42.266;23.110;2023-10-09T01:52:50;3.22;;;0.82;;
43449;SDS011;29041;42.266;23.110;2023-10-09T01:55:37;3.17;;;0.80;;
43449;SDS011;29041;42.266;23.110;2023-10-09T01:58:26;2.88;;;0.98;;
43449;SDS011;29041;42.266;23.110;2023-10-09T02:01:17;2.03;;;0.68;;
43449;SDS011;29041;42.266;23.110;2023-10-09T02:04:06;1.40;;;0.55;;
43449;SDS011;29041;42.266;23.110;2023-10-09T02:06:59;7.28;;;1.00;;
43449;SDS011;29041;42.266;23.110;2023-10-09T02:09:52;1.90;;;0.88;;
43449;SDS011;29041;42.266;23.110;2023-10-09T02:12:39;1.75;;;0.85;;
43449;SDS011;29041;42.266;23.110;2023-10-09T02:15:28;2.00;;;0.80;;
43449;SDS011;29041;42.266;23.110;2023-10-09T02:18:31;1.40;;;0.80;;
43449;SDS011;29041;42.266;23.110;2023-10-09T02:21:38;1.52;;;1.10;;
43449;SDS011;29041;42.266;23.110;2023-10-09T02:24:27;1.77;;;0.85;;
43449;SDS011;29041;42.266;23.110;2023-10-09T02:27:27;4.45;;;1.27;;
43449;SDS011;29041;42.266;23.110;2023-10-09T02:30:32;1.88;;;1.10;;
43449;SDS011;29041;42.266;23.110;2023-10-09T02:33:19;1.75;;;0.35;;
43449;SDS011;29041;42.266;23.110;2023-10-09T02:36:13;1.92;;;0.60;;
43449;SDS011;29041;42.266;23.110;2023-10-09T02:39:00;1.65;;;0.73;;
43449;SDS011;29041;42.266;23.110;2023-10-09T02:41:51;1.73;;;0.73;;
43449;SDS011;29041;42.266;23.110;2023-10-09T02:44:40;2.53;;;1.52;;
43449;SDS011;29041;42.266;23.110;2023-10-09T02:47:33;2.10;;;0.80;;
43449;SDS011;29041;42.266;23.110;2023-10-09T02:50:24;3.10;;;1.00;;
43449;SDS011;29041;42.266;23.110;2023-10-09T02:53:13;1.60;;;1.02;;
43449;SDS011;29041;42.266;23.110;2023-10-09T02:56:10;2.92;;;1.02;;
43449;SDS011;29041;42.266;23.110;2023-10-09T02:58:59;4.28;;;0.88;;
43449;SDS011;29041;42.266;23.110;2023-10-09T03:01:51;5.20;;;1.15;;
43449;SDS011;29041;42.266;23.110;2023-10-09T03:04:40;3.13;;;1.13;;
43449;SDS011;29041;42.266;23.110;2023-10-09T03:07:28;2.47;;;0.90;;
43449;SDS011;29041;42.266;23.110;2023-10-09T03:10:15;2.50;;;0.90;;
43449;SDS011;29041;42.266;23.110;2023-10-09T03:13:03;2.90;;;0.60;;
43449;SDS011;29041;42.266;23.110;2023-10-09T03:15:50;2.88;;;0.80;;
43449;SDS011;29041;42.266;23.110;2023-10-09T03:18:38;2.22;;;1.20;;
43449;SDS011;29041;42.266;23.110;2023-10-09T03:21:26;1.83;;;0.93;;
43449;SDS011;29041;42.266;23.110;2023-10-09T03:24:13;2.67;;;0.80;;
43449;SDS011;29041;42.266;23.110;2023-10-09T03:27:01;1.73;;;1.08;;
43449;SDS011;29041;42.266;23.110;2023-10-09T03:29:48;1.55;;;0.90;;
43449;SDS011;29041;42.266;23.110;2023-10-09T03:32:39;2.45;;;1.08;;
43449;SDS011;29041;42.266;23.110;2023-10-09T03:35:26;1.90;;;0.80;;
43449;SDS011;29041;42.266;23.110;2023-10-09T03:38:14;3.53;;;1.50;;
43449;SDS011;29041;42.266;23.110;2023-10-09T03:41:04;1.88;;;1.30;;
43449;SDS011;29041;42.266;23.110;2023-10-09T03:43:52;3.28;;;1.20;;
43449;SDS011;29041;42.266;23.110;2023-10-09T03:46:40;4.38;;;1.27;;
43449;SDS011;29041;42.266;23.110;2023-10-09T03:49:30;2.08;;;1.25;;
43449;SDS011;29041;42.266;23.110;2023-10-09T03:52:17;1.40;;;1.02;;
43449;SDS011;29041;42.266;23.110;2023-10-09T03:55:06;2.22;;;1.35;;
43449;SDS011;29041;42.266;23.110;2023-10-09T03:57:57;2.15;;;1.30;;
43449;SDS011;29041;42.266;23.110;2023-10-09T04:00:45;2.55;;;1.27;;
43449;SDS011;29041;42.266;23.110;2023-10-09T04:03:34;4.07;;;1.38;;
43449;SDS011;29041;42.266;23.110;2023-10-09T04:06:22;1.42;;;1.10;;
43449;SDS011;29041;42.266;23.110;2023-10-09T04:09:14;6.10;;;2.55;;
43449;SDS011;29041;42.266;23.110;2023-10-09T04:12:14;1.55;;;1.05;;
43449;SDS011;29041;42.266;23.110;2023-10-09T04:15:10;2.35;;;1.23;;
43449;SDS011;29041;42.266;23.110;2023-10-09T04:18:00;2.15;;;1.08;;
43449;SDS011;29041;42.266;23.110;2023-10-09T04:20:50;1.40;;;1.00;;
43449;SDS011;29041;42.266;23.110;2023-10-09T04:24:04;4.95;;;1.38;;
43449;SDS011;29041;42.266;23.110;2023-10-09T04:27:07;5.43;;;2.08;;
43449;SDS011;29041;42.266;23.110;2023-10-09T04:29:56;3.80;;;1.15;;
43449;SDS011;29041;42.266;23.110;2023-10-09T04:32:46;1.35;;;1.20;;
43449;SDS011;29041;42.266;23.110;2023-10-09T04:35:35;3.55;;;1.30;;
43449;SDS011;29041;42.266;23.110;2023-10-09T04:38:23;1.27;;;0.98;;
43449;SDS011;29041;42.266;23.110;2023-10-09T04:41:12;1.60;;;1.25;;
43449;SDS011;29041;42.266;23.110;2023-10-09T04:44:12;2.47;;;0.95;;
43449;SDS011;29041;42.266;23.110;2023-10-09T04:47:05;1.90;;;1.48;;
43449;SDS011;29041;42.266;23.110;2023-10-09T04:50:05;1.95;;;1.48;;
43449;SDS011;29041;42.266;23.110;2023-10-09T04:52:55;2.03;;;1.08;;
43449;SDS011;29041;42.266;23.110;2023-10-09T04:55:41;1.45;;;0.95;;
43449;SDS011;29041;42.266;23.110;2023-10-09T04:58:41;1.73;;;0.95;;
43449;SDS011;29041;42.266;23.110;2023-10-09T05:01:30;0.75;;;0.75;;
43449;SDS011;29041;42.266;23.110;2023-10-09T05:04:30;3.63;;;1.75;;
43449;SDS011;29041;42.266;23.110;2023-10-09T05:07:26;0.70;;;0.50;;
43449;SDS011;29041;42.266;23.110;2023-10-09T05:10:39;2.03;;;1.00;;
43449;SDS011;29041;42.266;23.110;2023-10-09T05:13:39;1.60;;;0.90;;
43449;SDS011;29041;42.266;23.110;2023-10-09T05:16:29;3.10;;;0.90;;
43449;SDS011;29041;42.266;23.110;2023-10-09T05:19:18;2.33;;;1.40;;
43449;SDS011;29041;42.266;23.110;2023-10-09T05:22:20;4.07;;;1.38;;
43449;SDS011;29041;42.266;23.110;2023-10-09T05:25:21;1.88;;;0.80;;
43449;SDS011;29041;42.266;23.110;2023-10-09T05:28:29;2.42;;;1.13;;
43449;SDS011;29041;42.266;23.110;2023-10-09T05:31:34;1.95;;;1.15;;
43449;SDS011;29041;42.266;23.110;2023-10-09T05:34:42;2.40;;;1.05;;
43449;SDS011;29041;42.266;23.110;2023-10-09T05:37:46;1.17;;;0.82;;
43449;SDS011;29041;42.266;23.110;2023-10-09T05:40:44;1.55;;;0.90;;
43449;SDS011;29041;42.266;23.110;2023-10-09T05:43:39;13.73;;;3.00;;
43449;SDS011;29041;42.266;23.110;2023-10-09T05:46:58;2.35;;;0.95;;
43449;SDS011;29041;42.266;23.110;2023-10-09T05:49:59;2.05;;;1.10;;
43449;SDS011;29041;42.266;23.110;2023-10-09T05:53:01;1.85;;;0.90;;
43449;SDS011;29041;42.266;23.110;2023-10-09T05:55:55;1.88;;;0.63;;
43449;SDS011;29041;42.266;23.110;2023-10-09T05:58:59;2.55;;;0.90;;
43449;SDS011;29041;42.266;23.110;2023-10-09T06:02:04;2.70;;;1.10;;
43449;SDS011;29041;42.266;23.110;2023-10-09T06:05:08;2.47;;;1.40;;
43449;SDS011;29041;42.266;23.110;2023-10-09T06:08:28;6.10;;;1.77;;
43449;SDS011;29041;42.266;23.110;2023-10-09T06:11:30;5.43;;;1.10;;
43449;SDS011;29041;42.266;23.110;2023-10-09T06:14:34;2.17;;;1.27;;
43449;SDS011;29041;42.266;23.110;2023-10-09T06:17:35;2.15;;;0.70;;
43449;SDS011;29041;42.266;23.110;2023-10-09T06:20:29;1.17;;;0.52;;
43449;SDS011;29041;42.266;23.110;2023-10-09T06:23:54;3.30;;;0.68;;
43449;SDS011;29041;42.266;23.110;2023-10-09T06:29:56;2.72;;;0.50;;
43449;SDS011;29041;42.266;23.110;2023-10-09T06:32:58;1.30;;;0.65;;
43449;SDS011;29041;42.266;23.110;2023-10-09T06:35:50;1.40;;;0.50;;
43449;SDS011;29041;42.266;23.110;2023-10-09T06:38:40;2.92;;;0.77;;
43449;SDS011;29041;42.266;23.110;2023-10-09T06:41:59;0.75;;;0.30;;
43449;SDS011;29041;42.266;23.110;2023-10-09T06:45:15;1.33;;;0.55;;
43449;SDS011;29041;42.266;23.110;2023-10-09T06:48:03;1.55;;;0.43;;
43449;SDS011;29041;42.266;23.110;2023-10-09T06:51:13;0.40;;;0.10;;
43449;SDS011;29041;42.266;23.110;2023-10-09T06:54:19;0.52;;;0.20;;
43449;SDS011;29041;42.266;23.110;2023-10-09T06:57:12;1.88;;;0.38;;
43449;SDS011;29041;42.266;23.110;2023-10-09T06:59:58;1.23;;;0.52;;
43449;SDS011;29041;42.266;23.110;2023-10-09T07:03:03;1.08;;;0.20;;
43449;SDS011;29041;42.266;23.110;2023-10-09T07:06:03;0.52;;;0.30;;
43449;SDS011;29041;42.266;23.110;2023-10-09T07:08:55;2.20;;;0.45;;
43449;SDS011;29041;42.266;23.110;2023-10-09T07:12:01;0.32;;;0.25;;
43449;SDS011;29041;42.266;23.110;2023-10-09T07:14:50;0.65;;;0.20;;
43449;SDS011;29041;42.266;23.110;2023-10-09T07:18:08;1.60;;;0.45;;
43449;SDS011;29041;42.266;23.110;2023-10-09T07:21:26;2.47;;;0.77;;
43449;SDS011;29041;42.266;23.110;2023-10-09T07:24:14;0.47;;;0.32;;
43449;SDS011;29041;42.266;23.110;2023-10-09T07:27:02;0.60;;;0.13;;
43449;SDS011;29041;42.266;23.110;2023-10-09T07:29:55;1.90;;;0.30;;
43449;SDS011;29041;42.266;23.110;2023-10-09T07:32:45;0.30;;;0.20;;
43449;SDS011;29041;42.266;23.110;2023-10-09T07:35:33;1.10;;;0.20;;
43449;SDS011;29041;42.266;23.110;2023-10-09T07:38:32;0.90;;;0.32;;
43449;SDS011;29041;42.266;23.110;2023-10-09T07:41:21;0.22;;;0.20;;
43449;SDS011;29041;42.266;23.110;2023-10-09T07:44:23;0.90;;;0.30;;
43449;SDS011;29041;42.266;23.110;2023-10-09T07:47:29;0.15;;;0.10;;
43449;SDS011;29041;42.266;23.110;2023-10-09T07:50:46;0.63;;;0.30;;
43449;SDS011;29041;42.266;23.110;2023-10-09T07:53:35;1.05;;;0.50;;
43449;SDS011;29041;42.266;23.110;2023-10-09T07:56:28;5.97;;;1.15;;
43449;SDS011;29041;42.266;23.110;2023-10-09T07:59:23;15.10;;;2.10;;
43449;SDS011;29041;42.266;23.110;2023-10-09T08:02:10;12.85;;;1.38;;
43449;SDS011;29041;42.266;23.110;2023-10-09T08:05:01;1.30;;;0.50;;
43449;SDS011;29041;42.266;23.110;2023-10-09T08:07:52;6.18;;;0.32;;
43449;SDS011;29041;42.266;23.110;2023-10-09T08:11:02;0.55;;;0.20;;
43449;SDS011;29041;42.266;23.110;2023-10-09T08:14:06;0.60;;;0.20;;
43449;SDS011;29041;42.266;23.110;2023-10-09T08:17:06;0.40;;;0.10;;
43449;SDS011;29041;42.266;23.110;2023-10-09T08:20:02;3.58;;;0.70;;
43449;SDS011;29041;42.266;23.110;2023-10-09T08:22:57;1.38;;;0.13;;
43449;SDS011;29041;42.266;23.110;2023-10-09T08:25:45;0.10;;;0.10;;
43449;SDS011;29041;42.266;23.110;2023-10-09T08:28:43;0.60;;;0.20;;
43449;SDS011;29041;42.266;23.110;2023-10-09T08:31:30;1.85;;;0.35;;
43449;SDS011;29041;42.266;23.110;2023-10-09T08:34:30;0.68;;;0.30;;
43449;SDS011;29041;42.266;23.110;2023-10-09T08:37:35;0.57;;;0.30;;
43449;SDS011;29041;42.266;23.110;2023-10-09T08:40:26;0.68;;;0.30;;
43449;SDS011;29041;42.266;23.110;2023-10-09T08:43:18;1.40;;;0.32;;
43449;SDS011;29041;42.266;23.110;2023-10-09T08:46:06;10.52;;;0.55;;
43449;SDS011;29041;42.266;23.110;2023-10-09T08:48:54;0.50;;;0.22;;
43449;SDS011;29041;42.266;23.110;2023-10-09T08:51:42;1.75;;;0.20;;
43449;SDS011;29041;42.266;23.110;2023-10-09T08:54:33;1.30;;;0.40;;
43449;SDS011;29041;42.266;23.110;2023-10-09T08:57:20;1.17;;;0.68;;
43449;SDS011;29041;42.266;23.110;2023-10-09T09:00:08;0.50;;;0.20;;
43449;SDS011;29041;42.266;23.110;2023-10-09T09:03:06;1.48;;;0.60;;
43449;SDS011;29041;42.266;23.110;2023-10-09T09:05:57;0.40;;;0.20;;
43449;SDS011;29041;42.266;23.110;2023-10-09T09:08:46;0.43;;;0.30;;
43449;SDS011;29041;42.266;23.110;2023-10-09T09:11:36;1.30;;;0.32;;
43449;SDS011;29041;42.266;23.110;2023-10-09T09:14:37;1.77;;;0.32;;
43449;SDS011;29041;42.266;23.110;2023-10-09T09:17:29;2.90;;;1.55;;
43449;SDS011;29041;42.266;23.110;2023-10-09T09:20:21;0.90;;;0.30;;
43449;SDS011;29041;42.266;23.110;2023-10-09T09:23:11;1.05;;;0.32;;
43449;SDS011;29041;42.266;23.110;2023-10-09T09:25:59;0.32;;;0.22;;
43449;SDS011;29041;42.266;23.110;2023-10-09T09:28:54;0.90;;;0.47;;
43449;SDS011;29041;42.266;23.110;2023-10-09T09:31:51;0.43;;;0.20;;
43449;SDS011;29041;42.266;23.110;2023-10-09T09:34:43;1.30;;;0.80;;
43449;SDS011;29041;42.266;23.110;2023-10-09T09:40:35;0.75;;;0.52;;
43449;SDS011;29041;42.266;23.110;2023-10-09T09:43:26;0.60;;;0.28;;
43449;SDS011;29041;42.266;23.110;2023-10-09T09:46:17;0.63;;;0.30;;
43449;SDS011;29041;42.266;23.110;2023-10-09T09:49:06;0.85;;;0.40;;
43449;SDS011;29041;42.266;23.110;2023-10-09T09:52:02;1.92;;;0.30;;
43449;SDS011;29041;42.266;23.110;2023-10-09T09:54:55;4.40;;;0.40;;
43449;SDS011;29041;42.266;23.110;2023-10-09T09:57:44;0.85;;;0.20;;
43449;SDS011;29041;42.266;23.110;2023-10-09T10:00:36;0.65;;;0.22;;
43449;SDS011;29041;42.266;23.110;2023-10-09T10:03:31;1.23;;;0.40;;
43449;SDS011;29041;42.266;23.110;2023-10-09T10:06:24;0.60;;;0.20;;
43449;SDS011;29041;42.266;23.110;2023-10-09T10:15:58;0.98;;;0.10;;
43449;SDS011;29041;42.266;23.110;2023-10-09T10:18:57;0.40;;;0.35;;
43449;SDS011;29041;42.266;23.110;2023-10-09T10:28:26;2.05;;;0.30;;
43449;SDS011;29041;42.266;23.110;2023-10-09T10:31:31;0.98;;;0.45;;
43449;SDS011;29041;42.266;23.110;2023-10-09T10:34:53;3.38;;;0.30;;
43449;SDS011;29041;42.266;23.110;2023-10-09T10:37:44;0.38;;;0.20;;
43449;SDS011;29041;42.266;23.110;2023-10-09T10:40:35;0.88;;;0.35;;
43449;SDS011;29041;42.266;23.110;2023-10-09T10:43:26;0.77;;;0.20;;
43449;SDS011;29041;42.266;23.110;2023-10-09T10:46:33;0.60;;;0.28;;
43449;SDS011;29041;42.266;23.110;2023-10-09T10:49:28;0.88;;;0.57;;
43449;SDS011;29041;42.266;23.110;2023-10-09T10:52:23;1.13;;;0.30;;
43449;SDS011;29041;42.266;23.110;2023-10-09T10:55:27;0.73;;;0.20;;
43449;SDS011;29041;42.266;23.110;2023-10-09T10:58:30;0.70;;;0.30;;
43449;SDS011;29041;42.266;23.110;2023-10-09T11:01:33;0.45;;;0.20;;
43449;SDS011;29041;42.266;23.110;2023-10-09T11:04:38;0.68;;;0.30;;
43449;SDS011;29041;42.266;23.110;2023-10-09T11:07:28;1.10;;;0.32;;
43449;SDS011;29041;42.266;23.110;2023-10-09T11:10:21;0.75;;;0.30;;
43449;SDS011;29041;42.266;23.110;2023-10-09T11:13:20;1.83;;;0.73;;
43449;SDS011;29041;42.266;23.110;2023-10-09T11:16:20;1.00;;;0.40;;
43449;SDS011;29041;42.266;23.110;2023-10-09T11:19:25;0.50;;;0.30;;
43449;SDS011;29041;42.266;23.110;2023-10-09T11:22:16;1.25;;;0.25;;
43449;SDS011;29041;42.266;23.110;2023-10-09T11:25:23;0.45;;;0.28;;
43449;SDS011;29041;42.266;23.110;2023-10-09T11:28:16;1.38;;;0.30;;
43449;SDS011;29041;42.266;23.110;2023-10-09T11:31:15;1.58;;;0.15;;
43449;SDS011;29041;42.266;23.110;2023-10-09T11:34:01;0.40;;;0.20;;
43449;SDS011;29041;42.266;23.110;2023-10-09T11:36:52;12.45;;;2.05;;
43449;SDS011;29041;42.266;23.110;2023-10-09T11:39:41;1.55;;;0.60;;
43449;SDS011;29041;42.266;23.110;2023-10-09T11:42:39;0.40;;;0.20;;
43449;SDS011;29041;42.266;23.110;2023-10-09T11:45:34;3.05;;;1.42;;
43449;SDS011;29041;42.266;23.110;2023-10-09T11:48:24;0.90;;;0.55;;
43449;SDS011;29041;42.266;23.110;2023-10-09T11:51:19;0.95;;;0.47;;
43449;SDS011;29041;42.266;23.110;2023-10-09T11:54:06;1.13;;;0.30;;
43449;SDS011;29041;42.266;23.110;2023-10-09T11:56:54;0.17;;;0.17;;
43449;SDS011;29041;42.266;23.110;2023-10-09T11:59:42;1.42;;;0.75;;
43449;SDS011;29041;42.266;23.110;2023-10-09T12:02:30;1.02;;;0.55;;
43449;SDS011;29041;42.266;23.110;2023-10-09T12:05:17;10.27;;;4.20;;
43449;SDS011;29041;42.266;23.110;2023-10-09T12:08:05;1.25;;;0.73;;
43449;SDS011;29041;42.266;23.110;2023-10-09T12:10:54;0.75;;;0.43;;
43449;SDS011;29041;42.266;23.110;2023-10-09T12:13:44;1.00;;;0.22;;
43449;SDS011;29041;42.266;23.110;2023-10-09T12:16:33;0.30;;;0.10;;
43449;SDS011;29041;42.266;23.110;2023-10-09T12:19:20;0.50;;;0.35;;
43449;SDS011;29041;42.266;23.110;2023-10-09T12:22:08;2.50;;;0.55;;
43449;SDS011;29041;42.266;23.110;2023-10-09T12:25:01;0.70;;;0.20;;
43449;SDS011;29041;42.266;23.110;2023-10-09T12:27:54;1.00;;;0.30;;
43449;SDS011;29041;42.266;23.110;2023-10-09T12:30:42;1.30;;;0.30;;
43449;SDS011;29041;42.266;23.110;2023-10-09T12:33:37;0.60;;;0.10;;
43449;SDS011;29041;42.266;23.110;2023-10-09T12:36:25;1.35;;;0.85;;
43449;SDS011;29041;42.266;23.110;2023-10-09T12:39:12;1.98;;;0.50;;
43449;SDS011;29041;42.266;23.110;2023-10-09T12:42:03;0.50;;;0.30;;
43449;SDS011;29041;42.266;23.110;2023-10-09T12:44:53;0.30;;;0.13;;
43449;SDS011;29041;42.266;23.110;2023-10-09T12:47:43;2.63;;;0.90;;
43449;SDS011;29041;42.266;23.110;2023-10-09T12:50:34;0.88;;;0.52;;
43449;SDS011;29041;42.266;23.110;2023-10-09T12:53:27;1.20;;;0.28;;
43449;SDS011;29041;42.266;23.110;2023-10-09T12:56:14;0.47;;;0.30;;
43449;SDS011;29041;42.266;23.110;2023-10-09T12:59:03;0.90;;;0.38;;
43449;SDS011;29041;42.266;23.110;2023-10-09T13:01:52;0.77;;;0.40;;
43449;SDS011;29041;42.266;23.110;2023-10-09T13:04:43;0.90;;;0.10;;
43449;SDS011;29041;42.266;23.110;2023-10-09T13:07:31;2.03;;;0.30;;
43449;SDS011;29041;42.266;23.110;2023-10-09T13:10:18;1.05;;;0.32;;
43449;SDS011;29041;42.266;23.110;2023-10-09T13:13:09;0.60;;;0.30;;
43449;SDS011;29041;42.266;23.110;2023-10-09T13:15:57;3.15;;;0.43;;
43449;SDS011;29041;42.266;23.110;2023-10-09T13:18:44;1.27;;;0.20;;
43449;SDS011;29041;42.266;23.110;2023-10-09T13:21:35;0.57;;;0.30;;
43449;SDS011;29041;42.266;23.110;2023-10-09T13:24:26;0.82;;;0.50;;
43449;SDS011;29041;42.266;23.110;2023-10-09T13:27:15;0.95;;;0.25;;
43449;SDS011;29041;42.266;23.110;2023-10-09T13:30:07;1.27;;;0.40;;
43449;SDS011;29041;42.266;23.110;2023-10-09T13:33:06;1.20;;;0.22;;
43449;SDS011;29041;42.266;23.110;2023-10-09T13:36:00;0.25;;;0.20;;
43449;SDS011;29041;42.266;23.110;2023-10-09T13:38:48;1.27;;;0.30;;
43449;SDS011;29041;42.266;23.110;2023-10-09T13:41:36;0.95;;;0.52;;
43449;SDS011;29041;42.266;23.110;2023-10-09T13:44:26;2.25;;;0.40;;
43449;SDS011;29041;42.266;23.110;2023-10-09T13:47:14;1.08;;;0.40;;
43449;SDS011;29041;42.266;23.110;2023-10-09T13:50:06;1.30;;;0.53;;
43449;SDS011;29041;42.266;23.110;2023-10-09T13:52:55;0.47;;;0.30;;
43449;SDS011;29041;42.266;23.110;2023-10-09T13:55:42;1.70;;;0.30;;
43449;SDS011;29041;42.266;23.110;2023-10-09T13:58:31;16.85;;;2.92;;
43449;SDS011;29041;42.266;23.110;2023-10-09T14:01:18;26.50;;;2.47;;
43449;SDS011;29041;42.266;23.110;2023-10-09T14:04:13;1.58;;;0.35;;
43449;SDS011;29041;42.266;23.110;2023-10-09T14:07:03;1.48;;;0.45;;
43449;SDS011;29041;42.266;23.110;2023-10-09T14:09:51;0.55;;;0.28;;
43449;SDS011;29041;42.266;23.110;2023-10-09T14:12:52;1.23;;;0.95;;
43449;SDS011;29041;42.266;23.110;2023-10-09T14:15:43;0.90;;;0.70;;
43449;SDS011;29041;42.266;23.110;2023-10-09T14:18:31;1.15;;;0.50;;
43449;SDS011;29041;42.266;23.110;2023-10-09T14:21:19;2.38;;;0.70;;
43449;SDS011;29041;42.266;23.110;2023-10-09T14:24:07;4.90;;;0.80;;
43449;SDS011;29041;42.266;23.110;2023-10-09T14:27:00;1.58;;;0.75;;
43449;SDS011;29041;42.266;23.110;2023-10-09T14:29:52;1.70;;;0.43;;
43449;SDS011;29041;42.266;23.110;2023-10-09T14:32:43;1.23;;;0.38;;
43449;SDS011;29041;42.266;23.110;2023-10-09T14:35:36;3.72;;;1.95;;
43449;SDS011;29041;42.266;23.110;2023-10-09T14:38:25;0.75;;;0.20;;
43449;SDS011;29041;42.266;23.110;2023-10-09T14:41:18;2.08;;;0.43;;
43449;SDS011;29041;42.266;23.110;2023-10-09T14:44:08;2.78;;;1.00;;
43449;SDS011;29041;42.266;23.110;2023-10-09T14:47:01;1.40;;;0.80;;
43449;SDS011;29041;42.266;23.110;2023-10-09T14:49:52;7.13;;;2.50;;
43449;SDS011;29041;42.266;23.110;2023-10-09T14:52:41;5.10;;;2.25;;
43449;SDS011;29041;42.266;23.110;2023-10-09T14:55:31;2.22;;;0.90;;
43449;SDS011;29041;42.266;23.110;2023-10-09T14:58:23;1.80;;;0.65;;
43449;SDS011;29041;42.266;23.110;2023-10-09T15:01:11;1.13;;;0.45;;
43449;SDS011;29041;42.266;23.110;2023-10-09T15:04:00;3.92;;;2.08;;
43449;SDS011;29041;42.266;23.110;2023-10-09T15:06:50;2.35;;;0.85;;
43449;SDS011;29041;42.266;23.110;2023-10-09T15:09:38;3.83;;;0.60;;
43449;SDS011;29041;42.266;23.110;2023-10-09T15:12:26;2.65;;;0.60;;
43449;SDS011;29041;42.266;23.110;2023-10-09T15:15:14;4.18;;;1.55;;
43449;SDS011;29041;42.266;23.110;2023-10-09T15:18:02;3.85;;;0.85;;
43449;SDS011;29041;42.266;23.110;2023-10-09T15:20:51;4.20;;;0.60;;
43449;SDS011;29041;42.266;23.110;2023-10-09T15:23:39;3.90;;;1.23;;
43449;SDS011;29041;42.266;23.110;2023-10-09T15:26:28;3.25;;;1.17;;
43449;SDS011;29041;42.266;23.110;2023-10-09T15:29:19;2.70;;;1.42;;
43449;SDS011;29041;42.266;23.110;2023-10-09T15:32:08;2.72;;;1.77;;
43449;SDS011;29041;42.266;23.110;2023-10-09T15:35:01;9.70;;;3.15;;
43449;SDS011;29041;42.266;23.110;2023-10-09T15:37:49;2.83;;;1.83;;
43449;SDS011;29041;42.266;23.110;2023-10-09T15:40:39;11.45;;;3.30;;
43449;SDS011;29041;42.266;23.110;2023-10-09T15:43:29;4.13;;;1.75;;
43449;SDS011;29041;42.266;23.110;2023-10-09T15:46:16;3.38;;;1.15;;
43449;SDS011;29041;42.266;23.110;2023-10-09T15:49:04;2.53;;;0.90;;
43449;SDS011;29041;42.266;23.110;2023-10-09T15:51:52;7.07;;;2.47;;
43449;SDS011;29041;42.266;23.110;2023-10-09T15:54:40;1.92;;;0.77;;
43449;SDS011;29041;42.266;23.110;2023-10-09T15:57:29;2.83;;;1.30;;
43449;SDS011;29041;42.266;23.110;2023-10-09T16:00:18;2.92;;;1.02;;
43449;SDS011;29041;42.266;23.110;2023-10-09T16:03:05;7.90;;;1.50;;
43449;SDS011;29041;42.266;23.110;2023-10-09T16:05:57;4.20;;;1.70;;
43449;SDS011;29041;42.266;23.110;2023-10-09T16:08:46;2.25;;;0.70;;
43449;SDS011;29041;42.266;23.110;2023-10-09T16:11:35;3.45;;;1.48;;
43449;SDS011;29041;42.266;23.110;2023-10-09T16:14:25;8.70;;;2.40;;
43449;SDS011;29041;42.266;23.110;2023-10-09T16:17:13;3.45;;;1.50;;
43449;SDS011;29041;42.266;23.110;2023-10-09T16:20:01;3.10;;;1.10;;
43449;SDS011;29041;42.266;23.110;2023-10-09T16:22:51;3.78;;;1.85;;
43449;SDS011;29041;42.266;23.110;2023-10-09T16:25:38;7.03;;;2.13;;
43449;SDS011;29041;42.266;23.110;2023-10-09T16:28:26;5.35;;;1.38;;
43449;SDS011;29041;42.266;23.110;2023-10-09T16:31:15;4.35;;;1.48;;
43449;SDS011;29041;42.266;23.110;2023-10-09T16:34:04;9.00;;;2.42;;
43449;SDS011;29041;42.266;23.110;2023-10-09T16:36:52;3.97;;;2.13;;
43449;SDS011;29041;42.266;23.110;2023-10-09T16:39:40;5.90;;;2.92;;
43449;SDS011;29041;42.266;23.110;2023-10-09T16:42:27;8.93;;;3.65;;
43449;SDS011;29041;42.266;23.110;2023-10-09T16:45:15;9.50;;;2.22;;
43449;SDS011;29041;42.266;23.110;2023-10-09T16:48:04;4.15;;;1.60;;
43449;SDS011;29041;42.266;23.110;2023-10-09T16:50:54;3.35;;;1.17;;
43449;SDS011;29041;42.266;23.110;2023-10-09T16:53:43;3.28;;;1.77;;
43449;SDS011;29041;42.266;23.110;2023-10-09T16:56:31;6.82;;;2.50;;
43449;SDS011;29041;42.266;23.110;2023-10-09T16:59:19;5.38;;;2.50;;
43449;SDS011;29041;42.266;23.110;2023-10-09T17:02:07;11.63;;;3.65;;
43449;SDS011;29041;42.266;23.110;2023-10-09T17:04:59;8.50;;;3.35;;
43449;SDS011;29041;42.266;23.110;2023-10-09T17:07:48;6.72;;;2.55;;
43449;SDS011;29041;42.266;23.110;2023-10-09T17:10:36;6.40;;;2.33;;
43449;SDS011;29041;42.266;23.110;2023-10-09T17:13:30;9.13;;;2.72;;
43449;SDS011;29041;42.266;23.110;2023-10-09T17:16:19;6.47;;;2.60;;
43449;SDS011;29041;42.266;23.110;2023-10-09T17:19:09;4.75;;;2.10;;
43449;SDS011;29041;42.266;23.110;2023-10-09T17:22:00;3.75;;;2.00;;
43449;SDS011;29041;42.266;23.110;2023-10-09T17:24:56;6.18;;;3.78;;